Oney Z — J8B4719 — position and weather

sailwx.info

Track history (hours):
 
Tides and Currents Weather Stations Pressure Air Temp Water Temp Dewpoint Dewpoint Depression Visibility Wind Speed Wind Dir Waves Ship Positions

Oney Z

Last reported at 2016-Apr-29 09:12 UTC. Time now 2016-May-04 01:56 UTC.
Position N 36°54' E 013°45'.

Length 79 m; draft 4 m.

Type: Cargo ship. MMSI: 376099000.

Date/timePositionNaut miles runAvg speedWind from/ knotsBaromVisibWave heightAir tempDewpointWater temp
2016-Apr-29 09:12N 36°54' E 013°45'5 7.7
2016-Apr-29 08:33N 36°52' E 013°51'8 7.6
2016-Apr-29 07:33N 36°50' E 013°60'8 7.9
2016-Apr-29 06:33N 36°48' E 014°09'9 7.3
2016-Apr-29 05:22N 36°45' E 014°20'6 7.4
2016-Apr-29 04:31N 36°43' E 014°27'7 7.0
2016-Apr-29 03:31N 36°41' E 014°35'7 6.9
2016-Apr-29 02:33N 36°39' E 014°43'  
2016-Apr-24 03:11N 37°40' E 024°14'5 7.5
2016-Apr-24 02:32N 37°44' E 024°19'289 6.5
2016-Apr-22 06:11N 40°53' E 029°01'6 8.3
2016-Apr-22 05:29N 40°50' E 029°08'4 3.7
2016-Apr-22 04:31N 40°53' E 029°11'0 0.0
2016-Apr-22 03:31N 40°53' E 029°11'0 0.0
2016-Apr-22 02:31N 40°53' E 029°11'0 0.0
2016-Apr-22 01:31N 40°53' E 029°11'0 0.1
2016-Apr-22 00:31N 40°53' E 029°11'0 0.0
2016-Apr-21 23:31N 40°53' E 029°11'0 0.0
2016-Apr-21 21:25N 40°53' E 029°11'0 0.0
2016-Apr-21 20:13N 40°53' E 029°11'0 0.0
2016-Apr-21 19:31N 40°53' E 029°11'0 0.0
2016-Apr-21 18:31N 40°53' E 029°11'0 0.0
2016-Apr-21 14:25N 40°53' E 029°11'0 0.0
2016-Apr-21 13:31N 40°53' E 029°11'0 0.0
2016-Apr-21 12:31N 40°53' E 029°11'0 0.0
2016-Apr-21 11:25N 40°53' E 029°11'0 0.0
2016-Apr-21 10:31N 40°53' E 029°11'0 0.0
2016-Apr-21 09:31N 40°53' E 029°11'0 0.0
2016-Apr-21 08:31N 40°53' E 029°11'0 0.0
2016-Apr-21 06:31N 40°53' E 029°11'0 0.0
2016-Apr-21 05:31N 40°53' E 029°11'0 0.0
2016-Apr-21 04:34N 40°53' E 029°11'0 0.2
2016-Apr-21 03:34N 40°53' E 029°11'  
Track history (hours):
 
Tides and Currents Weather Stations Pressure Air Temp Water Temp Dewpoint Dewpoint Depression Visibility Wind Speed Wind Dir Waves Ship Positions

Oney Z

Last reported at 2016-Apr-29 09:12 UTC. Time now 2016-May-04 01:56 UTC.
Position N 36°54' E 013°45'.

Length 79 m; draft 4 m.

Type: Cargo ship. MMSI: 376099000.

Date/timePositionNaut miles runAvg speedWind from/ knotsBaromVisibWave heightAir tempDewpointWater temp
2016-Apr-29 09:12N 36°54' E 013°45'5 7.7
2016-Apr-29 08:33N 36°52' E 013°51'8 7.6
2016-Apr-29 07:33N 36°50' E 013°60'8 7.9
2016-Apr-29 06:33N 36°48' E 014°09'9 7.3
2016-Apr-29 05:22N 36°45' E 014°20'6 7.4
2016-Apr-29 04:31N 36°43' E 014°27'7 7.0
2016-Apr-29 03:31N 36°41' E 014°35'7 6.9
2016-Apr-29 02:33N 36°39' E 014°43'  
2016-Apr-24 03:11N 37°40' E 024°14'5 7.5
2016-Apr-24 02:32N 37°44' E 024°19'289 6.5
2016-Apr-22 06:11N 40°53' E 029°01'6 8.3
2016-Apr-22 05:29N 40°50' E 029°08'4 3.7
2016-Apr-22 04:31N 40°53' E 029°11'0 0.0
2016-Apr-22 03:31N 40°53' E 029°11'0 0.0
2016-Apr-22 02:31N 40°53' E 029°11'0 0.0
2016-Apr-22 01:31N 40°53' E 029°11'0 0.1
2016-Apr-22 00:31N 40°53' E 029°11'0 0.0
2016-Apr-21 23:31N 40°53' E 029°11'0 0.0
2016-Apr-21 21:25N 40°53' E 029°11'0 0.0
2016-Apr-21 20:13N 40°53' E 029°11'0 0.0
2016-Apr-21 19:31N 40°53' E 029°11'0 0.0
2016-Apr-21 18:31N 40°53' E 029°11'0 0.0
2016-Apr-21 14:25N 40°53' E 029°11'0 0.0
2016-Apr-21 13:31N 40°53' E 029°11'0 0.0
2016-Apr-21 12:31N 40°53' E 029°11'0 0.0
2016-Apr-21 11:25N 40°53' E 029°11'0 0.0
2016-Apr-21 10:31N 40°53' E 029°11'0 0.0
2016-Apr-21 09:31N 40°53' E 029°11'0 0.0
2016-Apr-21 08:31N 40°53' E 029°11'0 0.0
2016-Apr-21 06:31N 40°53' E 029°11'0 0.0
2016-Apr-21 05:31N 40°53' E 029°11'0 0.0
2016-Apr-21 04:34N 40°53' E 029°11'0 0.2
2016-Apr-21 03:34N 40°53' E 029°11'  

Dump ship's entire track history